createdAt,value
2018-05-14T00:00:12.116Z,40.62
2018-05-14T00:02:39.579Z,40.76
2018-05-14T00:05:07.034Z,40.95
2018-05-14T00:07:34.528Z,41.00
2018-05-14T00:10:01.972Z,41.18
2018-05-14T00:12:29.470Z,41.28
2018-05-14T00:14:57.000Z,41.42
2018-05-14T00:17:24.444Z,41.33
2018-05-14T00:19:51.886Z,41.50
2018-05-14T00:22:19.340Z,41.56
2018-05-14T00:24:46.818Z,41.81
2018-05-14T00:27:14.313Z,42.06
2018-05-14T00:29:41.784Z,42.00
2018-05-14T00:32:14.290Z,41.69
2018-05-14T00:34:41.786Z,42.10
2018-05-14T00:37:09.239Z,42.31
2018-05-14T00:39:36.766Z,42.34
2018-05-14T00:42:04.194Z,42.06
2018-05-14T00:44:31.650Z,42.06
2018-05-14T00:46:59.076Z,42.33
2018-05-14T00:49:26.572Z,42.13
2018-05-14T00:51:53.974Z,42.48
2018-05-14T00:54:22.195Z,42.84
2018-05-14T00:56:51.061Z,42.89
2018-05-14T00:59:18.709Z,42.86
2018-05-14T01:01:46.168Z,43.04
2018-05-14T01:04:13.600Z,43.08
2018-05-14T01:06:41.073Z,43.12
2018-05-14T01:09:08.763Z,43.29
2018-05-14T01:11:36.501Z,43.42
2018-05-14T01:14:04.169Z,43.27
2018-05-14T01:16:31.614Z,43.21
2018-05-14T01:18:59.053Z,43.41
2018-05-14T01:21:27.220Z,43.52
2018-05-14T01:23:54.687Z,43.56
2018-05-14T01:26:22.587Z,43.88
2018-05-14T01:28:50.986Z,43.77
2018-05-14T01:31:42.123Z,43.61
2018-05-14T01:34:09.572Z,44.12
2018-05-14T01:36:37.213Z,44.02
2018-05-14T01:39:04.699Z,43.92
2018-05-14T01:41:32.381Z,44.03
2018-05-14T01:43:59.855Z,44.44
2018-05-14T01:46:27.291Z,44.40
2018-05-14T01:48:54.752Z,44.33
2018-05-14T01:51:22.232Z,44.67
2018-05-14T01:53:49.746Z,44.94
2018-05-14T01:56:17.175Z,44.81
2018-05-14T01:58:45.480Z,44.63
2018-05-14T02:01:12.976Z,44.56
2018-05-14T02:03:40.643Z,44.78
2018-05-14T02:06:08.095Z,45.05
2018-05-14T02:08:35.607Z,45.33
2018-05-14T02:11:03.124Z,45.46
2018-05-14T02:13:30.567Z,45.48
2018-05-14T02:15:58.027Z,45.44
2018-05-14T02:18:26.195Z,45.51
2018-05-14T02:23:46.717Z,45.50
2018-05-14T02:26:14.171Z,45.73
2018-05-14T02:28:41.637Z,45.76
2018-05-14T02:31:10.455Z,45.77
2018-05-14T02:33:37.987Z,45.94
2018-05-14T02:36:05.445Z,45.92
2018-05-14T02:38:32.892Z,46.09
2018-05-14T02:41:00.374Z,46.32
2018-05-14T02:43:27.807Z,46.58
2018-05-14T02:45:55.267Z,46.64
2018-05-14T02:48:22.836Z,46.96
2018-05-14T02:50:50.394Z,47.31
2018-05-14T02:53:17.822Z,47.44
2018-05-14T02:55:45.280Z,47.63
2018-05-14T02:58:12.775Z,47.58
2018-05-14T03:00:40.237Z,47.47
2018-05-14T03:03:07.711Z,47.88
2018-05-14T03:05:35.839Z,47.90
2018-05-14T03:08:03.277Z,47.94
2018-05-14T03:10:31.130Z,47.90
2018-05-14T03:12:58.507Z,48.35
2018-05-14T03:15:25.986Z,48.48
2018-05-14T03:17:53.451Z,48.48
2018-05-14T03:20:20.906Z,48.49
2018-05-14T03:22:48.372Z,48.39
2018-05-14T03:25:15.867Z,48.39
2018-05-14T03:27:43.356Z,48.46
2018-05-14T03:30:10.831Z,49.07
2018-05-14T03:32:38.286Z,49.01
2018-05-14T03:35:05.750Z,49.32
2018-05-14T03:37:33.226Z,49.14
2018-05-14T03:40:00.753Z,49.13
2018-05-14T03:42:28.303Z,49.22
2018-05-14T03:44:55.799Z,49.50
2018-05-14T03:47:23.235Z,49.64
2018-05-14T03:49:50.715Z,49.54
2018-05-14T03:52:18.867Z,49.66
2018-05-14T03:54:46.625Z,49.79
2018-05-14T03:57:14.100Z,49.71
2018-05-14T04:00:04.291Z,49.87
2018-05-14T04:02:43.718Z,49.65
2018-05-14T04:05:18.860Z,49.59
2018-05-14T04:07:46.313Z,49.44
2018-05-14T04:10:13.778Z,49.85
2018-05-14T04:12:41.249Z,49.90
2018-05-14T04:15:08.691Z,50.07
2018-05-14T04:17:36.199Z,50.22
2018-05-14T04:20:03.648Z,50.11
2018-05-14T04:22:31.293Z,50.40
2018-05-14T04:24:58.855Z,50.53
2018-05-14T04:27:26.297Z,50.68
2018-05-14T04:29:53.835Z,50.87
2018-05-14T04:32:21.314Z,50.76
2018-05-14T04:34:48.852Z,50.50
2018-05-14T04:37:16.294Z,50.58
2018-05-14T04:39:43.748Z,50.60
2018-05-14T04:42:11.211Z,50.60
2018-05-14T04:44:38.671Z,50.49
2018-05-14T04:47:06.431Z,50.38
2018-05-14T04:49:33.863Z,50.43
2018-05-14T04:52:01.342Z,50.28
2018-05-14T04:54:28.808Z,50.16
2018-05-14T04:56:56.275Z,50.06
2018-05-14T04:59:23.751Z,50.31
2018-05-14T05:01:56.189Z,50.21
2018-05-14T05:04:23.665Z,50.24
2018-05-14T05:06:52.024Z,50.11
2018-05-14T05:09:19.711Z,49.85
2018-05-14T05:11:47.172Z,49.85
2018-05-14T05:14:14.649Z,49.96
2018-05-14T05:16:42.116Z,49.95
2018-05-14T05:19:09.572Z,49.86
2018-05-14T05:21:37.237Z,49.95
2018-05-14T05:24:04.693Z,50.17
2018-05-14T05:26:32.165Z,50.29
2018-05-14T05:28:59.669Z,50.46
2018-05-14T05:31:27.449Z,50.27
2018-05-14T05:33:54.931Z,50.09
2018-05-14T05:36:22.378Z,50.01
2018-05-14T05:38:49.861Z,50.17
2018-05-14T05:41:17.364Z,50.34
2018-05-14T05:43:44.822Z,50.46
2018-05-14T05:46:12.277Z,50.23
2018-05-14T05:48:39.747Z,50.29
2018-05-14T05:51:09.781Z,50.19
2018-05-14T05:53:37.253Z,50.34
2018-05-14T05:56:04.689Z,50.38
2018-05-14T05:58:32.150Z,50.25
2018-05-14T06:00:59.633Z,50.58
2018-05-14T06:03:27.203Z,50.84
2018-05-14T06:05:54.653Z,50.69
2018-05-14T06:08:22.163Z,50.62
2018-05-14T06:10:49.615Z,51.07
2018-05-14T06:13:17.061Z,50.88
2018-05-14T06:15:44.515Z,50.53
2018-05-14T06:18:11.969Z,50.24
2018-05-14T06:20:39.425Z,49.95
2018-05-14T06:23:06.883Z,50.69
2018-05-14T06:25:34.347Z,50.31
2018-05-14T06:28:01.788Z,50.24
2018-05-14T06:30:29.271Z,49.88
2018-05-14T06:32:56.806Z,49.52
2018-05-14T06:35:24.161Z,49.26
2018-05-14T06:37:51.629Z,48.65
2018-05-14T06:40:19.085Z,48.74
2018-05-14T06:42:46.590Z,48.89
2018-05-14T06:45:13.981Z,48.33
2018-05-14T06:47:41.480Z,48.47
2018-05-14T06:50:08.921Z,48.61
2018-05-14T06:52:36.399Z,48.25
2018-05-14T06:55:04.767Z,48.56
2018-05-14T06:57:34.876Z,47.98
2018-05-14T07:00:03.047Z,47.51
2018-05-14T07:02:30.511Z,46.79
2018-05-14T07:04:58.003Z,46.41
2018-05-14T07:07:25.527Z,46.06
2018-05-14T07:09:53.077Z,45.72
2018-05-14T07:12:20.542Z,45.67
2018-05-14T07:14:48.041Z,46.14
2018-05-14T07:17:15.584Z,46.18
2018-05-14T07:19:43.047Z,46.49
2018-05-14T07:22:10.477Z,46.90
2018-05-14T07:24:37.919Z,47.20
2018-05-14T07:27:05.537Z,47.48
2018-05-14T07:29:33.215Z,48.06
2018-05-14T07:32:14.931Z,47.77
2018-05-14T07:34:42.414Z,47.65
2018-05-14T07:37:10.201Z,47.99
2018-05-14T07:39:37.433Z,48.03
2018-05-14T07:42:04.899Z,47.61
2018-05-14T07:44:32.421Z,47.78
2018-05-14T07:46:59.970Z,47.43
2018-05-14T07:49:27.385Z,47.30
2018-05-14T07:51:54.875Z,47.04
2018-05-14T07:54:22.568Z,46.92
2018-05-14T07:56:50.030Z,46.72
2018-05-14T07:59:17.482Z,46.43
2018-05-14T08:01:44.937Z,45.89
2018-05-14T08:04:12.408Z,46.43
2018-05-14T08:06:39.895Z,46.20
2018-05-14T08:09:07.320Z,46.29
2018-05-14T08:11:34.795Z,46.28
2018-05-14T08:14:02.333Z,45.71
2018-05-14T08:16:29.834Z,45.30
2018-05-14T08:18:57.300Z,45.69
2018-05-14T08:21:24.749Z,45.45
2018-05-14T08:23:52.194Z,45.37
2018-05-14T08:26:19.697Z,44.61
2018-05-14T08:28:47.591Z,44.93
2018-05-14T08:31:15.049Z,44.45
2018-05-14T08:33:42.499Z,44.56
2018-05-14T08:36:09.960Z,44.81
2018-05-14T08:38:37.420Z,44.39
2018-05-14T08:41:05.713Z,44.47
2018-05-14T08:43:33.239Z,44.19
2018-05-14T08:46:01.059Z,43.89
2018-05-14T08:48:28.501Z,44.00
2018-05-14T08:50:55.955Z,43.38
2018-05-14T08:53:23.412Z,43.77
2018-05-14T08:55:50.849Z,43.37
2018-05-14T08:58:18.335Z,43.07
2018-05-14T09:00:47.628Z,42.53
2018-05-14T09:03:15.140Z,42.75
2018-05-14T09:05:42.582Z,42.31
2018-05-14T09:08:10.078Z,42.64
2018-05-14T09:10:37.608Z,42.51
2018-05-14T09:13:05.070Z,42.31
2018-05-14T09:15:32.583Z,41.28
2018-05-14T09:18:00.859Z,41.35
2018-05-14T09:20:28.931Z,41.06
2018-05-14T09:22:56.401Z,40.59
2018-05-14T09:25:23.877Z,40.56
2018-05-14T09:27:51.374Z,38.81
2018-05-14T09:30:18.769Z,37.70
2018-05-14T09:32:46.214Z,37.35
2018-05-14T09:35:13.648Z,37.20
2018-05-14T09:37:41.098Z,36.59
2018-05-14T09:40:09.191Z,37.09
2018-05-14T09:42:37.503Z,37.49
2018-05-14T09:45:05.013Z,36.33
2018-05-14T09:47:32.670Z,36.17
2018-05-14T09:49:59.980Z,36.50
2018-05-14T09:52:27.467Z,36.47
2018-05-14T09:54:54.963Z,36.66
2018-05-14T09:57:22.522Z,34.30
2018-05-14T09:59:49.904Z,34.50
2018-05-14T10:02:17.388Z,34.54
2018-05-14T10:04:45.204Z,35.37
2018-05-14T10:07:12.776Z,35.35
2018-05-14T10:09:40.507Z,35.45
2018-05-14T10:12:08.166Z,34.59
2018-05-14T10:14:35.672Z,33.76
2018-05-14T10:17:03.178Z,33.50
2018-05-14T10:19:30.636Z,33.90
2018-05-14T10:21:58.161Z,34.56
2018-05-14T10:24:26.251Z,34.17
2018-05-14T10:26:53.784Z,33.46
2018-05-14T10:29:21.284Z,33.20
2018-05-14T10:31:49.560Z,33.18
2018-05-14T10:34:17.062Z,33.03
2018-05-14T10:36:45.534Z,32.33
2018-05-14T10:39:13.149Z,31.59
2018-05-14T10:41:40.688Z,31.36
2018-05-14T10:44:08.208Z,30.65
2018-05-14T10:46:35.710Z,30.79
2018-05-14T10:49:03.185Z,31.31
2018-05-14T10:51:30.616Z,30.55
2018-05-14T10:53:58.110Z,29.85
2018-05-14T10:56:25.700Z,29.86
2018-05-14T10:58:53.190Z,29.13
2018-05-14T11:01:20.715Z,27.08
2018-05-14T11:03:48.255Z,28.05
2018-05-14T11:06:15.732Z,27.99
2018-05-14T11:08:43.517Z,27.67
2018-05-14T11:11:20.670Z,26.20
2018-05-14T11:13:48.186Z,26.54
2018-05-14T11:16:15.727Z,26.44
2018-05-14T11:18:43.267Z,27.09
2018-05-14T11:21:10.781Z,26.73
2018-05-14T11:23:38.249Z,26.41
2018-05-14T11:26:05.710Z,26.50
2018-05-14T11:28:33.166Z,26.39
2018-05-14T11:31:00.626Z,25.96
2018-05-14T11:33:28.081Z,25.93
2018-05-14T11:35:55.547Z,24.99
2018-05-14T11:38:23.280Z,23.37
2018-05-14T11:40:51.587Z,23.98
2018-05-14T11:43:19.039Z,23.55
2018-05-14T11:45:47.004Z,23.97
2018-05-14T11:48:14.510Z,23.79
2018-05-14T11:50:42.119Z,24.17
2018-05-14T11:53:09.608Z,23.42
2018-05-14T11:55:37.947Z,22.68
2018-05-14T11:58:06.340Z,23.29
2018-05-14T12:00:33.834Z,23.60
2018-05-14T12:03:01.391Z,23.33
2018-05-14T12:05:29.132Z,22.94
2018-05-14T12:07:56.575Z,23.28
2018-05-14T12:10:24.147Z,22.59
2018-05-14T12:12:51.616Z,21.86
2018-05-14T12:15:19.164Z,21.50
2018-05-14T12:17:46.883Z,20.96
2018-05-14T12:20:14.497Z,21.39
2018-05-14T12:22:42.019Z,21.56
2018-05-14T12:25:09.525Z,21.50
2018-05-14T12:27:37.128Z,21.12
2018-05-14T12:30:04.643Z,20.65
2018-05-14T12:32:32.097Z,20.85
2018-05-14T12:34:59.557Z,20.04
2018-05-14T12:37:27.300Z,20.65
2018-05-14T12:39:54.675Z,20.87
2018-05-14T12:42:22.989Z,20.83
2018-05-14T12:44:50.487Z,20.47
2018-05-14T12:47:17.951Z,20.42
2018-05-14T12:49:45.658Z,20.39
2018-05-14T12:52:14.494Z,19.68
2018-05-14T12:54:42.041Z,19.77
2018-05-14T12:57:09.552Z,19.75
2018-05-14T12:59:36.950Z,18.97
2018-05-14T13:02:04.467Z,19.57
2018-05-14T13:07:10.300Z,20.03
2018-05-14T13:09:49.167Z,20.11
2018-05-14T13:12:16.715Z,20.79
2018-05-14T13:14:44.273Z,18.61
2018-05-14T13:17:11.826Z,19.28
2018-05-14T13:19:40.168Z,18.87
2018-05-14T13:22:12.573Z,18.84
2018-05-14T13:24:42.939Z,19.48
2018-05-14T13:32:30.715Z,20.16
2018-05-14T13:40:07.853Z,21.48
2018-05-14T13:42:35.369Z,21.79
2018-05-14T13:45:02.932Z,21.04
2018-05-14T13:47:31.308Z,21.16
2018-05-14T13:49:58.823Z,21.71
2018-05-14T13:52:26.323Z,21.35
2018-05-14T13:54:53.753Z,20.86
2018-05-14T13:57:22.845Z,21.15
2018-05-14T13:59:50.335Z,21.13
2018-05-14T14:02:17.831Z,20.52
2018-05-14T14:04:45.367Z,20.57
2018-05-14T14:07:14.278Z,21.09
2018-05-14T14:09:42.153Z,20.75
2018-05-14T14:12:23.902Z,19.97
2018-05-14T14:14:51.430Z,19.66
2018-05-14T14:17:19.015Z,19.77
2018-05-14T14:19:46.459Z,19.96
2018-05-14T14:25:06.704Z,20.15
2018-05-14T14:27:34.261Z,20.15
2018-05-14T14:30:01.735Z,19.97
2018-05-14T14:32:29.188Z,19.13
2018-05-14T14:34:56.644Z,19.46
2018-05-14T14:37:24.128Z,19.99
2018-05-14T14:39:51.661Z,20.84
2018-05-14T14:42:19.443Z,20.20
2018-05-14T14:44:47.435Z,20.95
2018-05-14T14:47:15.056Z,21.47
2018-05-14T14:49:44.685Z,21.37
2018-05-14T14:52:12.583Z,21.52
2018-05-14T14:54:40.253Z,22.18
2018-05-14T14:57:07.835Z,22.47
2018-05-14T14:59:35.382Z,21.58
2018-05-14T15:02:03.021Z,20.75
2018-05-14T15:04:30.508Z,21.30
2018-05-14T15:06:58.390Z,21.58
2018-05-14T15:09:25.852Z,21.79
2018-05-14T15:11:53.383Z,22.25
2018-05-14T15:14:20.847Z,22.17
2018-05-14T15:16:48.497Z,22.08
2018-05-14T15:19:16.095Z,22.18
2018-05-14T15:21:48.890Z,21.50
2018-05-14T15:24:17.429Z,22.02
2018-05-14T15:26:46.621Z,22.34
2018-05-14T15:29:14.222Z,23.00
2018-05-14T15:31:41.680Z,21.94
2018-05-14T15:34:09.176Z,22.28
2018-05-14T15:36:36.629Z,22.41
2018-05-14T15:39:04.153Z,22.40
2018-05-14T15:41:31.652Z,22.72
2018-05-14T15:43:59.136Z,23.06
2018-05-14T15:46:26.619Z,23.00
2018-05-14T15:48:54.863Z,23.00
2018-05-14T15:51:22.400Z,22.89
2018-05-14T15:53:49.887Z,22.91
2018-05-14T15:56:22.109Z,22.96
2018-05-14T15:58:49.738Z,23.62
2018-05-14T16:01:17.254Z,23.81
2018-05-14T16:03:44.813Z,23.91
2018-05-14T16:06:12.383Z,23.89
2018-05-14T16:08:40.778Z,24.18
2018-05-14T16:11:08.311Z,24.22
2018-05-14T16:13:36.117Z,24.13
2018-05-14T16:16:04.060Z,23.84
2018-05-14T16:18:32.406Z,23.89
2018-05-14T16:20:59.886Z,24.04
2018-05-14T16:23:27.706Z,24.02
2018-05-14T16:25:55.127Z,24.10
2018-05-14T16:28:23.090Z,24.40
2018-05-14T16:30:50.856Z,24.67
2018-05-14T16:33:18.786Z,24.98
2018-05-14T16:35:46.476Z,25.37
2018-05-14T16:38:14.148Z,25.55
2018-05-14T16:40:41.591Z,25.84
2018-05-14T16:43:09.037Z,25.84
2018-05-14T16:45:37.030Z,25.91
2018-05-14T16:48:04.957Z,25.85
2018-05-14T16:50:32.423Z,25.71
2018-05-14T16:52:59.986Z,25.82
2018-05-14T16:55:27.447Z,25.71
2018-05-14T16:57:54.918Z,25.81
2018-05-14T17:00:22.437Z,25.35
2018-05-14T17:02:50.183Z,25.55
2018-05-14T17:05:17.683Z,25.63
2018-05-14T17:07:45.425Z,25.86
2018-05-14T17:10:13.887Z,25.96
2018-05-14T17:15:34.790Z,26.02
2018-05-14T17:18:02.281Z,25.80
2018-05-14T17:20:29.763Z,25.59
2018-05-14T17:22:57.298Z,26.05
2018-05-14T17:25:25.160Z,25.97
2018-05-14T17:27:52.933Z,25.85
2018-05-14T17:30:20.484Z,26.12
2018-05-14T17:32:57.568Z,25.88
2018-05-14T17:35:25.062Z,26.17
2018-05-14T17:37:52.491Z,26.29
2018-05-14T17:40:20.213Z,26.32
2018-05-14T17:42:47.667Z,26.66
2018-05-14T17:45:15.205Z,26.88
2018-05-14T17:47:42.862Z,27.04
2018-05-14T17:50:10.333Z,27.24
2018-05-14T17:52:43.183Z,27.44
2018-05-14T17:55:10.774Z,27.91
2018-05-14T17:57:38.282Z,28.17
2018-05-14T18:00:05.915Z,28.44
2018-05-14T18:02:33.457Z,28.49
2018-05-14T18:05:00.998Z,28.51
2018-05-14T18:07:28.454Z,28.65
2018-05-14T18:09:55.925Z,28.93
2018-05-14T18:15:15.914Z,29.12
2018-05-14T18:17:43.423Z,29.11
2018-05-14T18:20:16.596Z,29.05
2018-05-14T18:22:44.156Z,29.19
2018-05-14T18:25:17.330Z,29.32
2018-05-14T18:27:50.269Z,29.42
2018-05-14T18:30:23.187Z,28.94
2018-05-14T18:35:44.436Z,29.37
2018-05-14T18:38:11.956Z,29.58
2018-05-14T18:40:39.420Z,29.69
2018-05-14T18:43:06.902Z,29.86
2018-05-14T18:45:34.425Z,29.97
2018-05-14T18:48:01.927Z,30.18
2018-05-14T18:50:29.387Z,30.31
2018-05-14T18:52:56.872Z,30.56
2018-05-14T18:55:24.367Z,30.98
2018-05-14T18:57:51.847Z,30.99
2018-05-14T19:00:19.344Z,30.88
2018-05-14T19:02:46.793Z,31.08
2018-05-14T19:05:14.258Z,31.31
2018-05-14T19:07:42.603Z,31.70
2018-05-14T19:10:15.680Z,31.70
2018-05-14T19:12:43.545Z,32.05
2018-05-14T19:15:16.760Z,32.25
2018-05-14T19:17:49.846Z,32.28
2018-05-14T19:20:17.309Z,32.27
2018-05-14T19:22:50.486Z,32.35
2018-05-14T19:25:17.944Z,32.40
2018-05-14T19:27:51.000Z,32.60
2018-05-14T19:30:18.462Z,32.65
2018-05-14T19:32:50.912Z,32.86
2018-05-14T19:35:23.886Z,32.92
2018-05-14T19:37:51.389Z,33.07
2018-05-14T19:40:24.366Z,33.02
2018-05-14T19:42:51.954Z,32.93
2018-05-14T19:45:19.472Z,32.84
2018-05-14T19:47:46.975Z,32.90
2018-05-14T19:50:14.565Z,32.65
2018-05-14T19:52:41.944Z,32.87
2018-05-14T19:55:09.479Z,32.94
2018-05-14T19:57:37.046Z,32.80
2018-05-14T20:00:04.581Z,33.01
2018-05-14T20:02:32.062Z,32.92
2018-05-14T20:04:59.553Z,33.01
2018-05-14T20:07:27.078Z,32.98
2018-05-14T20:09:54.610Z,33.27
2018-05-14T20:12:22.124Z,33.70
2018-05-14T20:14:49.572Z,33.98
2018-05-14T20:17:17.870Z,33.72
2018-05-14T20:19:45.376Z,34.00
2018-05-14T20:22:13.562Z,34.25
2018-05-14T20:24:41.110Z,34.33
2018-05-14T20:27:08.597Z,34.62
2018-05-14T20:29:36.140Z,34.47
2018-05-14T20:32:03.674Z,34.83
2018-05-14T20:34:31.144Z,34.72
2018-05-14T20:36:58.633Z,34.70
2018-05-14T20:39:26.342Z,34.95
2018-05-14T20:41:53.874Z,35.16
2018-05-14T20:44:21.515Z,35.34
2018-05-14T20:46:48.976Z,35.20
2018-05-14T20:49:16.495Z,35.16
2018-05-14T20:51:48.900Z,34.77
2018-05-14T20:54:16.376Z,35.03
2018-05-14T20:56:43.841Z,35.10
2018-05-14T20:59:11.392Z,35.18
2018-05-14T21:01:38.852Z,35.28
2018-05-14T21:04:06.346Z,35.64
2018-05-14T21:06:33.791Z,35.60
2018-05-14T21:09:01.285Z,35.40
2018-05-14T21:11:38.538Z,35.66
2018-05-14T21:14:05.992Z,35.96
2018-05-14T21:16:33.511Z,36.03
2018-05-14T21:19:00.984Z,36.13
2018-05-14T21:21:28.427Z,36.02
2018-05-14T21:23:55.891Z,36.41
2018-05-14T21:26:23.397Z,36.51
2018-05-14T21:28:50.999Z,36.34
2018-05-14T21:31:42.165Z,36.40
2018-05-14T21:34:09.623Z,35.99
2018-05-14T21:36:38.031Z,36.26
2018-05-14T21:39:05.479Z,36.24
2018-05-14T21:41:32.937Z,36.00
2018-05-14T21:44:01.655Z,36.25
2018-05-14T21:46:29.609Z,36.35
2018-05-14T21:48:57.941Z,36.49
2018-05-14T21:51:39.783Z,36.56
2018-05-14T21:54:07.250Z,36.57
2018-05-14T21:56:34.726Z,36.62
2018-05-14T21:59:02.178Z,36.62
2018-05-14T22:01:29.670Z,36.96
2018-05-14T22:03:57.124Z,37.11
2018-05-14T22:06:24.604Z,37.04
2018-05-14T22:08:52.434Z,37.24
2018-05-14T22:11:19.922Z,36.96
2018-05-14T22:13:48.874Z,37.05
2018-05-14T22:16:16.609Z,37.20
2018-05-14T22:18:46.935Z,37.21
2018-05-14T22:21:15.444Z,37.19
2018-05-14T22:26:15.829Z,36.95
2018-05-14T22:28:43.732Z,36.81
2018-05-14T22:31:12.850Z,36.97
2018-05-14T22:33:41.201Z,36.99
2018-05-14T22:36:08.850Z,37.27
2018-05-14T22:38:38.577Z,37.41
2018-05-14T22:41:06.235Z,37.42
2018-05-14T22:43:33.757Z,37.38
2018-05-14T22:46:01.265Z,37.29
2018-05-14T22:48:28.805Z,37.45
2018-05-14T22:50:56.467Z,37.70
2018-05-14T22:53:24.139Z,37.74
2018-05-14T22:55:51.649Z,37.73
2018-05-14T22:58:19.221Z,37.77
2018-05-14T23:00:46.770Z,37.87
2018-05-14T23:03:14.295Z,37.88
2018-05-14T23:05:41.817Z,37.79
2018-05-14T23:08:09.279Z,38.07
2018-05-14T23:10:36.845Z,37.99
2018-05-14T23:13:04.365Z,38.07
2018-05-14T23:15:31.899Z,38.19
2018-05-14T23:17:59.443Z,38.27
2018-05-14T23:20:26.981Z,38.36
2018-05-14T23:22:54.495Z,38.61
2018-05-14T23:25:22.037Z,38.63
2018-05-14T23:27:49.491Z,38.84
2018-05-14T23:30:17.057Z,39.10
2018-05-14T23:32:44.555Z,39.25
2018-05-14T23:35:12.082Z,39.25
2018-05-14T23:37:39.613Z,39.33
2018-05-14T23:40:07.043Z,39.28
2018-05-14T23:42:34.823Z,39.42
2018-05-14T23:45:02.470Z,39.41
2018-05-14T23:47:29.994Z,39.56
2018-05-14T23:49:57.498Z,39.80
2018-05-14T23:52:25.151Z,40.19
2018-05-14T23:54:52.808Z,40.18
2018-05-14T23:57:20.291Z,40.60
2018-05-14T23:59:47.763Z,40.64
